sensor_id;sensor_type;location;lat;lon;timestamp;P1;durP1;ratioP1;P2;durP2;ratioP2
39018;SDS011;24786;51.984;5.872;2022-12-18T00:02:00;60.00;;;23.63;;
39018;SDS011;24786;51.984;5.872;2022-12-18T00:04:26;58.93;;;24.67;;
39018;SDS011;24786;51.984;5.872;2022-12-18T00:06:52;58.37;;;23.77;;
39018;SDS011;24786;51.984;5.872;2022-12-18T00:09:18;58.77;;;24.07;;
39018;SDS011;24786;51.984;5.872;2022-12-18T00:11:44;59.87;;;23.33;;
39018;SDS011;24786;51.984;5.872;2022-12-18T00:14:11;58.37;;;23.43;;
39018;SDS011;24786;51.984;5.872;2022-12-18T00:16:38;61.77;;;23.57;;
39018;SDS011;24786;51.984;5.872;2022-12-18T00:19:04;62.40;;;24.57;;
39018;SDS011;24786;51.984;5.872;2022-12-18T00:21:30;63.30;;;23.90;;
39018;SDS011;24786;51.984;5.872;2022-12-18T00:23:57;61.67;;;25.07;;
39018;SDS011;24786;51.984;5.872;2022-12-18T00:26:31;55.70;;;23.17;;
39018;SDS011;24786;51.984;5.872;2022-12-18T00:29:02;57.17;;;22.73;;
39018;SDS011;24786;51.984;5.872;2022-12-18T00:31:30;56.40;;;25.03;;
39018;SDS011;24786;51.984;5.872;2022-12-18T00:33:56;56.20;;;25.30;;
39018;SDS011;24786;51.984;5.872;2022-12-18T00:36:24;56.47;;;25.03;;
39018;SDS011;24786;51.984;5.872;2022-12-18T00:38:52;57.35;;;23.63;;
39018;SDS011;24786;51.984;5.872;2022-12-18T00:41:18;55.53;;;24.07;;
39018;SDS011;24786;51.984;5.872;2022-12-18T00:44:03;55.33;;;24.20;;
39018;SDS011;24786;51.984;5.872;2022-12-18T00:46:30;67.30;;;24.43;;
39018;SDS011;24786;51.984;5.872;2022-12-18T00:48:56;64.53;;;26.90;;
39018;SDS011;24786;51.984;5.872;2022-12-18T00:51:23;54.57;;;22.73;;
39018;SDS011;24786;51.984;5.872;2022-12-18T00:53:49;56.90;;;23.07;;
39018;SDS011;24786;51.984;5.872;2022-12-18T00:56:15;56.30;;;22.80;;
39018;SDS011;24786;51.984;5.872;2022-12-18T00:58:40;60.27;;;24.87;;
39018;SDS011;24786;51.984;5.872;2022-12-18T01:01:06;62.33;;;25.50;;
39018;SDS011;24786;51.984;5.872;2022-12-18T01:03:32;56.10;;;23.80;;
39018;SDS011;24786;51.984;5.872;2022-12-18T01:05:58;53.13;;;22.77;;
39018;SDS011;24786;51.984;5.872;2022-12-18T01:08:23;49.43;;;23.07;;
39018;SDS011;24786;51.984;5.872;2022-12-18T01:10:49;59.43;;;23.70;;
39018;SDS011;24786;51.984;5.872;2022-12-18T01:13:15;50.00;;;22.57;;
39018;SDS011;24786;51.984;5.872;2022-12-18T01:15:40;46.10;;;21.53;;
39018;SDS011;24786;51.984;5.872;2022-12-18T01:18:12;46.47;;;20.93;;
39018;SDS011;24786;51.984;5.872;2022-12-18T01:20:38;52.00;;;22.27;;
39018;SDS011;24786;51.984;5.872;2022-12-18T01:23:03;49.00;;;22.93;;
39018;SDS011;24786;51.984;5.872;2022-12-18T01:25:29;52.17;;;23.17;;
39018;SDS011;24786;51.984;5.872;2022-12-18T01:27:54;50.73;;;23.23;;
39018;SDS011;24786;51.984;5.872;2022-12-18T01:30:20;44.83;;;20.20;;
39018;SDS011;24786;51.984;5.872;2022-12-18T01:32:46;44.27;;;20.10;;
39018;SDS011;24786;51.984;5.872;2022-12-18T01:35:11;49.47;;;21.30;;
39018;SDS011;24786;51.984;5.872;2022-12-18T01:37:37;46.93;;;22.37;;
39018;SDS011;24786;51.984;5.872;2022-12-18T01:40:02;47.10;;;20.10;;
39018;SDS011;24786;51.984;5.872;2022-12-18T01:42:28;43.10;;;20.00;;
39018;SDS011;24786;51.984;5.872;2022-12-18T01:44:58;42.77;;;19.07;;
39018;SDS011;24786;51.984;5.872;2022-12-18T01:52:55;44.37;;;19.20;;
39018;SDS011;24786;51.984;5.872;2022-12-18T01:55:29;42.00;;;18.10;;
39018;SDS011;24786;51.984;5.872;2022-12-18T01:58:00;39.93;;;18.83;;
39018;SDS011;24786;51.984;5.872;2022-12-18T02:00:26;44.93;;;20.53;;
39018;SDS011;24786;51.984;5.872;2022-12-18T02:02:52;48.07;;;20.17;;
39018;SDS011;24786;51.984;5.872;2022-12-18T02:05:29;46.90;;;20.30;;
39018;SDS011;24786;51.984;5.872;2022-12-18T02:08:27;41.10;;;19.33;;
39018;SDS011;24786;51.984;5.872;2022-12-18T02:16:51;37.70;;;18.00;;
39018;SDS011;24786;51.984;5.872;2022-12-18T02:27:45;45.40;;;20.10;;
39018;SDS011;24786;51.984;5.872;2022-12-18T02:30:13;48.27;;;21.47;;
39018;SDS011;24786;51.984;5.872;2022-12-18T02:32:41;39.73;;;18.60;;
39018;SDS011;24786;51.984;5.872;2022-12-18T02:35:15;43.30;;;19.40;;
39018;SDS011;24786;51.984;5.872;2022-12-18T02:37:45;41.97;;;18.20;;
39018;SDS011;24786;51.984;5.872;2022-12-18T02:40:12;42.57;;;18.77;;
39018;SDS011;24786;51.984;5.872;2022-12-18T02:42:40;39.50;;;18.30;;
39018;SDS011;24786;51.984;5.872;2022-12-18T02:45:06;43.37;;;19.87;;
39018;SDS011;24786;51.984;5.872;2022-12-18T02:47:33;34.20;;;17.47;;
39018;SDS011;24786;51.984;5.872;2022-12-18T02:58:04;41.40;;;18.27;;
39018;SDS011;24786;51.984;5.872;2022-12-18T03:00:58;40.83;;;18.30;;
39018;SDS011;24786;51.984;5.872;2022-12-18T03:03:34;34.10;;;15.93;;
39018;SDS011;24786;51.984;5.872;2022-12-18T03:09:09;31.33;;;16.00;;
39018;SDS011;24786;51.984;5.872;2022-12-18T03:11:41;38.93;;;16.10;;
39018;SDS011;24786;51.984;5.872;2022-12-18T03:14:32;38.20;;;18.77;;
39018;SDS011;24786;51.984;5.872;2022-12-18T03:17:02;38.50;;;18.23;;
39018;SDS011;24786;51.984;5.872;2022-12-18T03:19:31;39.45;;;18.05;;
39018;SDS011;24786;51.984;5.872;2022-12-18T03:21:58;36.57;;;17.60;;
39018;SDS011;24786;51.984;5.872;2022-12-18T03:24:28;39.03;;;18.35;;
39018;SDS011;24786;51.984;5.872;2022-12-18T03:26:57;37.17;;;16.35;;
39018;SDS011;24786;51.984;5.872;2022-12-18T03:29:28;38.13;;;18.17;;
39018;SDS011;24786;51.984;5.872;2022-12-18T03:32:07;38.87;;;17.00;;
39018;SDS011;24786;51.984;5.872;2022-12-18T03:34:45;37.17;;;16.93;;
39018;SDS011;24786;51.984;5.872;2022-12-18T03:39:40;35.20;;;16.37;;
39018;SDS011;24786;51.984;5.872;2022-12-18T03:42:16;38.90;;;18.33;;
39018;SDS011;24786;51.984;5.872;2022-12-18T03:47:58;39.75;;;16.73;;
39018;SDS011;24786;51.984;5.872;2022-12-18T03:55:35;37.73;;;18.97;;
39018;SDS011;24786;51.984;5.872;2022-12-18T03:58:03;41.53;;;17.97;;
39018;SDS011;24786;51.984;5.872;2022-12-18T04:00:31;36.17;;;17.17;;
39018;SDS011;24786;51.984;5.872;2022-12-18T04:02:58;39.80;;;18.57;;
39018;SDS011;24786;51.984;5.872;2022-12-18T04:05:26;40.07;;;17.60;;
39018;SDS011;24786;51.984;5.872;2022-12-18T04:07:53;43.00;;;17.77;;
39018;SDS011;24786;51.984;5.872;2022-12-18T04:10:21;40.93;;;17.77;;
39018;SDS011;24786;51.984;5.872;2022-12-18T04:12:46;34.73;;;17.43;;
39018;SDS011;24786;51.984;5.872;2022-12-18T04:15:12;39.63;;;16.57;;
39018;SDS011;24786;51.984;5.872;2022-12-18T04:17:38;31.90;;;15.20;;
39018;SDS011;24786;51.984;5.872;2022-12-18T04:20:11;30.13;;;14.73;;
39018;SDS011;24786;51.984;5.872;2022-12-18T04:22:37;31.33;;;15.33;;
39018;SDS011;24786;51.984;5.872;2022-12-18T04:25:02;33.90;;;17.23;;
39018;SDS011;24786;51.984;5.872;2022-12-18T04:27:28;34.77;;;15.70;;
39018;SDS011;24786;51.984;5.872;2022-12-18T04:29:54;32.97;;;13.60;;
39018;SDS011;24786;51.984;5.872;2022-12-18T04:32:19;41.53;;;20.23;;
39018;SDS011;24786;51.984;5.872;2022-12-18T04:34:45;34.87;;;17.50;;
39018;SDS011;24786;51.984;5.872;2022-12-18T04:37:11;36.80;;;18.27;;
39018;SDS011;24786;51.984;5.872;2022-12-18T04:39:36;35.57;;;17.57;;
39018;SDS011;24786;51.984;5.872;2022-12-18T04:42:02;38.37;;;18.27;;
39018;SDS011;24786;51.984;5.872;2022-12-18T04:44:27;31.63;;;15.97;;
39018;SDS011;24786;51.984;5.872;2022-12-18T04:46:53;34.60;;;16.73;;
39018;SDS011;24786;51.984;5.872;2022-12-18T04:49:19;37.97;;;17.13;;
39018;SDS011;24786;51.984;5.872;2022-12-18T04:51:44;34.13;;;15.63;;
39018;SDS011;24786;51.984;5.872;2022-12-18T04:54:10;29.87;;;14.80;;
39018;SDS011;24786;51.984;5.872;2022-12-18T04:56:35;27.50;;;14.40;;
39018;SDS011;24786;51.984;5.872;2022-12-18T04:59:01;31.93;;;15.83;;
39018;SDS011;24786;51.984;5.872;2022-12-18T05:01:26;28.50;;;14.33;;
39018;SDS011;24786;51.984;5.872;2022-12-18T05:03:52;29.17;;;13.70;;
39018;SDS011;24786;51.984;5.872;2022-12-18T05:06:18;27.80;;;15.10;;
39018;SDS011;24786;51.984;5.872;2022-12-18T05:08:43;23.43;;;12.83;;
39018;SDS011;24786;51.984;5.872;2022-12-18T05:11:13;25.47;;;13.03;;
39018;SDS011;24786;51.984;5.872;2022-12-18T05:13:43;28.07;;;14.17;;
39018;SDS011;24786;51.984;5.872;2022-12-18T05:16:09;26.43;;;12.43;;
39018;SDS011;24786;51.984;5.872;2022-12-18T05:18:35;23.63;;;12.73;;
39018;SDS011;24786;51.984;5.872;2022-12-18T05:21:01;21.87;;;11.83;;
39018;SDS011;24786;51.984;5.872;2022-12-18T05:23:27;25.07;;;14.10;;
39018;SDS011;24786;51.984;5.872;2022-12-18T05:25:54;26.07;;;13.10;;
39018;SDS011;24786;51.984;5.872;2022-12-18T05:28:24;24.80;;;12.87;;
39018;SDS011;24786;51.984;5.872;2022-12-18T05:30:52;30.23;;;12.67;;
39018;SDS011;24786;51.984;5.872;2022-12-18T05:33:19;24.53;;;11.97;;
39018;SDS011;24786;51.984;5.872;2022-12-18T05:35:52;26.07;;;12.27;;
39018;SDS011;24786;51.984;5.872;2022-12-18T05:38:19;22.47;;;11.70;;
39018;SDS011;24786;51.984;5.872;2022-12-18T05:40:47;24.77;;;12.47;;
39018;SDS011;24786;51.984;5.872;2022-12-18T05:43:13;24.00;;;11.87;;
39018;SDS011;24786;51.984;5.872;2022-12-18T05:45:39;30.53;;;12.97;;
39018;SDS011;24786;51.984;5.872;2022-12-18T05:48:05;23.30;;;11.33;;
39018;SDS011;24786;51.984;5.872;2022-12-18T05:50:33;26.93;;;13.33;;
39018;SDS011;24786;51.984;5.872;2022-12-18T05:53:00;26.67;;;13.55;;
39018;SDS011;24786;51.984;5.872;2022-12-18T05:55:26;24.80;;;13.53;;
39018;SDS011;24786;51.984;5.872;2022-12-18T05:57:51;24.17;;;11.77;;
39018;SDS011;24786;51.984;5.872;2022-12-18T06:00:17;22.37;;;11.83;;
39018;SDS011;24786;51.984;5.872;2022-12-18T06:02:46;23.20;;;12.13;;
39018;SDS011;24786;51.984;5.872;2022-12-18T06:05:12;27.63;;;13.98;;
39018;SDS011;24786;51.984;5.872;2022-12-18T06:07:37;25.83;;;12.23;;
39018;SDS011;24786;51.984;5.872;2022-12-18T06:10:03;27.17;;;13.93;;
39018;SDS011;24786;51.984;5.872;2022-12-18T06:12:29;27.40;;;13.73;;
39018;SDS011;24786;51.984;5.872;2022-12-18T06:14:54;29.03;;;14.40;;
39018;SDS011;24786;51.984;5.872;2022-12-18T06:17:20;22.17;;;12.43;;
39018;SDS011;24786;51.984;5.872;2022-12-18T06:19:45;28.43;;;14.07;;
39018;SDS011;24786;51.984;5.872;2022-12-18T06:22:11;27.07;;;13.53;;
39018;SDS011;24786;51.984;5.872;2022-12-18T06:24:36;25.73;;;13.33;;
39018;SDS011;24786;51.984;5.872;2022-12-18T06:27:02;24.07;;;14.00;;
39018;SDS011;24786;51.984;5.872;2022-12-18T06:29:28;24.53;;;13.40;;
39018;SDS011;24786;51.984;5.872;2022-12-18T06:31:53;28.07;;;14.17;;
39018;SDS011;24786;51.984;5.872;2022-12-18T06:34:19;26.97;;;13.43;;
39018;SDS011;24786;51.984;5.872;2022-12-18T06:36:44;28.80;;;14.27;;
39018;SDS011;24786;51.984;5.872;2022-12-18T06:39:13;27.53;;;15.30;;
39018;SDS011;24786;51.984;5.872;2022-12-18T06:41:38;29.83;;;14.50;;
39018;SDS011;24786;51.984;5.872;2022-12-18T06:44:04;27.17;;;14.17;;
39018;SDS011;24786;51.984;5.872;2022-12-18T06:46:30;26.70;;;14.00;;
39018;SDS011;24786;51.984;5.872;2022-12-18T06:48:57;29.13;;;14.20;;
39018;SDS011;24786;51.984;5.872;2022-12-18T06:51:23;25.13;;;13.87;;
39018;SDS011;24786;51.984;5.872;2022-12-18T06:53:50;24.97;;;13.53;;
39018;SDS011;24786;51.984;5.872;2022-12-18T06:56:15;25.73;;;13.50;;
39018;SDS011;24786;51.984;5.872;2022-12-18T06:58:41;25.43;;;13.60;;
39018;SDS011;24786;51.984;5.872;2022-12-18T07:01:08;24.27;;;13.10;;
39018;SDS011;24786;51.984;5.872;2022-12-18T07:03:35;27.77;;;13.40;;
39018;SDS011;24786;51.984;5.872;2022-12-18T07:06:01;27.13;;;14.10;;
39018;SDS011;24786;51.984;5.872;2022-12-18T07:08:28;25.23;;;12.97;;
39018;SDS011;24786;51.984;5.872;2022-12-18T07:10:54;28.17;;;13.63;;
39018;SDS011;24786;51.984;5.872;2022-12-18T07:13:20;25.67;;;13.50;;
39018;SDS011;24786;51.984;5.872;2022-12-18T07:15:46;26.63;;;13.53;;
39018;SDS011;24786;51.984;5.872;2022-12-18T07:18:11;24.30;;;13.43;;
39018;SDS011;24786;51.984;5.872;2022-12-18T07:20:37;29.13;;;14.70;;
39018;SDS011;24786;51.984;5.872;2022-12-18T07:23:03;27.73;;;13.70;;
39018;SDS011;24786;51.984;5.872;2022-12-18T07:25:30;27.73;;;14.33;;
39018;SDS011;24786;51.984;5.872;2022-12-18T07:27:59;26.52;;;13.55;;
39018;SDS011;24786;51.984;5.872;2022-12-18T07:30:24;26.83;;;13.10;;
39018;SDS011;24786;51.984;5.872;2022-12-18T07:32:50;24.00;;;12.00;;
39018;SDS011;24786;51.984;5.872;2022-12-18T07:35:16;28.13;;;13.07;;
39018;SDS011;24786;51.984;5.872;2022-12-18T07:37:41;21.60;;;11.40;;
39018;SDS011;24786;51.984;5.872;2022-12-18T07:40:07;25.00;;;12.83;;
39018;SDS011;24786;51.984;5.872;2022-12-18T07:42:33;24.77;;;13.47;;
39018;SDS011;24786;51.984;5.872;2022-12-18T07:45:00;23.07;;;12.23;;
39018;SDS011;24786;51.984;5.872;2022-12-18T07:47:26;21.80;;;12.70;;
39018;SDS011;24786;51.984;5.872;2022-12-18T07:49:52;22.43;;;11.57;;
39018;SDS011;24786;51.984;5.872;2022-12-18T07:52:18;24.33;;;11.57;;
39018;SDS011;24786;51.984;5.872;2022-12-18T07:54:44;18.63;;;10.60;;
39018;SDS011;24786;51.984;5.872;2022-12-18T07:57:10;23.43;;;12.03;;
39018;SDS011;24786;51.984;5.872;2022-12-18T07:59:36;22.53;;;10.47;;
39018;SDS011;24786;51.984;5.872;2022-12-18T08:02:02;21.87;;;11.43;;
39018;SDS011;24786;51.984;5.872;2022-12-18T08:04:27;24.37;;;11.80;;
39018;SDS011;24786;51.984;5.872;2022-12-18T08:06:53;19.60;;;10.73;;
39018;SDS011;24786;51.984;5.872;2022-12-18T08:09:19;22.03;;;10.30;;
39018;SDS011;24786;51.984;5.872;2022-12-18T08:11:44;19.77;;;10.73;;
39018;SDS011;24786;51.984;5.872;2022-12-18T08:14:10;22.83;;;11.17;;
39018;SDS011;24786;51.984;5.872;2022-12-18T08:16:39;19.27;;;10.98;;
39018;SDS011;24786;51.984;5.872;2022-12-18T08:19:05;22.37;;;12.33;;
39018;SDS011;24786;51.984;5.872;2022-12-18T08:21:31;22.00;;;11.57;;
39018;SDS011;24786;51.984;5.872;2022-12-18T08:23:57;19.70;;;11.03;;
39018;SDS011;24786;51.984;5.872;2022-12-18T08:26:25;19.00;;;11.03;;
39018;SDS011;24786;51.984;5.872;2022-12-18T08:28:53;24.17;;;11.20;;
39018;SDS011;24786;51.984;5.872;2022-12-18T08:31:20;21.87;;;11.63;;
39018;SDS011;24786;51.984;5.872;2022-12-18T08:33:48;20.13;;;10.90;;
39018;SDS011;24786;51.984;5.872;2022-12-18T08:36:14;28.00;;;12.77;;
39018;SDS011;24786;51.984;5.872;2022-12-18T08:38:40;22.23;;;12.60;;
39018;SDS011;24786;51.984;5.872;2022-12-18T08:41:06;23.53;;;12.40;;
39018;SDS011;24786;51.984;5.872;2022-12-18T08:43:34;22.63;;;12.60;;
39018;SDS011;24786;51.984;5.872;2022-12-18T08:46:19;21.63;;;11.47;;
39018;SDS011;24786;51.984;5.872;2022-12-18T08:48:47;19.93;;;10.73;;
39018;SDS011;24786;51.984;5.872;2022-12-18T08:51:15;19.13;;;10.63;;
39018;SDS011;24786;51.984;5.872;2022-12-18T08:53:42;18.37;;;10.27;;
39018;SDS011;24786;51.984;5.872;2022-12-18T08:56:08;32.07;;;14.30;;
39018;SDS011;24786;51.984;5.872;2022-12-18T08:58:33;22.73;;;11.97;;
39018;SDS011;24786;51.984;5.872;2022-12-18T09:01:02;24.97;;;11.90;;
39018;SDS011;24786;51.984;5.872;2022-12-18T09:03:29;25.67;;;12.43;;
39018;SDS011;24786;51.984;5.872;2022-12-18T09:05:55;23.50;;;11.43;;
39018;SDS011;24786;51.984;5.872;2022-12-18T09:08:21;23.57;;;11.23;;
39018;SDS011;24786;51.984;5.872;2022-12-18T09:10:47;19.87;;;10.13;;
39018;SDS011;24786;51.984;5.872;2022-12-18T09:13:14;23.43;;;10.97;;
39018;SDS011;24786;51.984;5.872;2022-12-18T09:15:47;22.23;;;10.47;;
39018;SDS011;24786;51.984;5.872;2022-12-18T09:18:15;21.00;;;10.80;;
39018;SDS011;24786;51.984;5.872;2022-12-18T09:20:42;18.87;;;9.87;;
39018;SDS011;24786;51.984;5.872;2022-12-18T09:23:09;21.00;;;11.23;;
39018;SDS011;24786;51.984;5.872;2022-12-18T09:25:35;19.00;;;10.30;;
39018;SDS011;24786;51.984;5.872;2022-12-18T09:28:11;18.17;;;9.13;;
39018;SDS011;24786;51.984;5.872;2022-12-18T09:30:38;22.53;;;9.87;;
39018;SDS011;24786;51.984;5.872;2022-12-18T09:33:06;18.50;;;10.00;;
39018;SDS011;24786;51.984;5.872;2022-12-18T09:35:32;19.60;;;9.50;;
39018;SDS011;24786;51.984;5.872;2022-12-18T09:37:57;20.00;;;9.67;;
39018;SDS011;24786;51.984;5.872;2022-12-18T09:40:25;23.70;;;10.80;;
39018;SDS011;24786;51.984;5.872;2022-12-18T09:43:01;21.43;;;10.73;;
39018;SDS011;24786;51.984;5.872;2022-12-18T09:45:49;20.10;;;10.60;;
39018;SDS011;24786;51.984;5.872;2022-12-18T09:48:28;20.37;;;10.77;;
39018;SDS011;24786;51.984;5.872;2022-12-18T09:51:01;21.57;;;10.53;;
39018;SDS011;24786;51.984;5.872;2022-12-18T09:53:31;21.20;;;11.07;;
39018;SDS011;24786;51.984;5.872;2022-12-18T09:58:34;22.67;;;11.67;;
39018;SDS011;24786;51.984;5.872;2022-12-18T10:01:12;18.00;;;10.43;;
39018;SDS011;24786;51.984;5.872;2022-12-18T10:03:43;20.30;;;10.67;;
39018;SDS011;24786;51.984;5.872;2022-12-18T10:06:12;22.70;;;10.87;;
39018;SDS011;24786;51.984;5.872;2022-12-18T10:08:49;17.97;;;9.90;;
39018;SDS011;24786;51.984;5.872;2022-12-18T10:16:28;18.40;;;10.07;;
39018;SDS011;24786;51.984;5.872;2022-12-18T10:19:18;23.67;;;11.73;;
39018;SDS011;24786;51.984;5.872;2022-12-18T10:25:02;17.47;;;9.90;;
39018;SDS011;24786;51.984;5.872;2022-12-18T10:27:31;21.10;;;11.23;;
39018;SDS011;24786;51.984;5.872;2022-12-18T10:29:57;17.70;;;10.03;;
39018;SDS011;24786;51.984;5.872;2022-12-18T10:32:25;19.47;;;11.30;;
39018;SDS011;24786;51.984;5.872;2022-12-18T10:34:53;21.07;;;10.13;;
39018;SDS011;24786;51.984;5.872;2022-12-18T10:37:22;18.70;;;10.43;;
39018;SDS011;24786;51.984;5.872;2022-12-18T10:42:34;16.90;;;9.63;;
39018;SDS011;24786;51.984;5.872;2022-12-18T10:45:05;18.50;;;10.17;;
39018;SDS011;24786;51.984;5.872;2022-12-18T10:47:42;16.83;;;9.77;;
39018;SDS011;24786;51.984;5.872;2022-12-18T10:50:17;19.07;;;9.53;;
39018;SDS011;24786;51.984;5.872;2022-12-18T10:52:55;17.47;;;9.50;;
39018;SDS011;24786;51.984;5.872;2022-12-18T10:55:24;21.27;;;10.80;;
39018;SDS011;24786;51.984;5.872;2022-12-18T10:57:53;20.27;;;9.73;;
39018;SDS011;24786;51.984;5.872;2022-12-18T11:00:29;19.10;;;10.40;;
39018;SDS011;24786;51.984;5.872;2022-12-18T11:02:55;19.70;;;10.63;;
39018;SDS011;24786;51.984;5.872;2022-12-18T11:07:57;21.27;;;10.10;;
39018;SDS011;24786;51.984;5.872;2022-12-18T11:10:32;18.13;;;9.50;;
39018;SDS011;24786;51.984;5.872;2022-12-18T11:13:15;16.57;;;8.73;;
39018;SDS011;24786;51.984;5.872;2022-12-18T11:15:45;17.37;;;9.87;;
39018;SDS011;24786;51.984;5.872;2022-12-18T11:18:18;19.10;;;10.37;;
39018;SDS011;24786;51.984;5.872;2022-12-18T11:20:50;19.17;;;10.07;;
39018;SDS011;24786;51.984;5.872;2022-12-18T11:23:18;18.13;;;9.30;;
39018;SDS011;24786;51.984;5.872;2022-12-18T11:25:50;22.50;;;11.03;;
39018;SDS011;24786;51.984;5.872;2022-12-18T11:31:11;19.33;;;9.43;;
39018;SDS011;24786;51.984;5.872;2022-12-18T11:34:01;21.03;;;10.33;;
39018;SDS011;24786;51.984;5.872;2022-12-18T11:36:39;18.27;;;9.87;;
39018;SDS011;24786;51.984;5.872;2022-12-18T11:39:16;19.50;;;11.20;;
39018;SDS011;24786;51.984;5.872;2022-12-18T11:41:55;19.20;;;10.40;;
39018;SDS011;24786;51.984;5.872;2022-12-18T11:44:50;18.67;;;10.30;;
39018;SDS011;24786;51.984;5.872;2022-12-18T11:50:13;18.00;;;9.33;;
39018;SDS011;24786;51.984;5.872;2022-12-18T11:52:50;16.87;;;9.83;;
39018;SDS011;24786;51.984;5.872;2022-12-18T11:55:22;18.03;;;10.07;;
39018;SDS011;24786;51.984;5.872;2022-12-18T12:00:43;17.40;;;9.80;;
39018;SDS011;24786;51.984;5.872;2022-12-18T12:06:24;20.53;;;10.93;;
39018;SDS011;24786;51.984;5.872;2022-12-18T12:21:06;16.47;;;9.57;;
39018;SDS011;24786;51.984;5.872;2022-12-18T12:23:44;23.57;;;11.33;;
39018;SDS011;24786;51.984;5.872;2022-12-18T12:26:26;16.77;;;9.77;;
39018;SDS011;24786;51.984;5.872;2022-12-18T12:39:27;18.57;;;9.93;;
39018;SDS011;24786;51.984;5.872;2022-12-18T12:42:01;19.53;;;10.33;;
39018;SDS011;24786;51.984;5.872;2022-12-18T12:44:51;17.13;;;9.53;;
39018;SDS011;24786;51.984;5.872;2022-12-18T12:47:21;19.03;;;10.43;;
39018;SDS011;24786;51.984;5.872;2022-12-18T12:50:02;17.73;;;9.57;;
39018;SDS011;24786;51.984;5.872;2022-12-18T12:52:39;21.47;;;10.10;;
39018;SDS011;24786;51.984;5.872;2022-12-18T12:55:12;18.03;;;10.20;;
39018;SDS011;24786;51.984;5.872;2022-12-18T12:57:46;17.73;;;9.87;;
39018;SDS011;24786;51.984;5.872;2022-12-18T13:00:20;19.77;;;11.00;;
39018;SDS011;24786;51.984;5.872;2022-12-18T13:06:11;16.73;;;9.33;;
39018;SDS011;24786;51.984;5.872;2022-12-18T13:08:54;21.10;;;10.00;;
39018;SDS011;24786;51.984;5.872;2022-12-18T13:11:29;18.30;;;10.27;;
39018;SDS011;24786;51.984;5.872;2022-12-18T13:14:35;19.37;;;9.97;;
39018;SDS011;24786;51.984;5.872;2022-12-18T13:19:56;19.73;;;10.67;;
39018;SDS011;24786;51.984;5.872;2022-12-18T13:24:59;17.33;;;10.53;;
39018;SDS011;24786;51.984;5.872;2022-12-18T13:43:46;21.53;;;11.20;;
39018;SDS011;24786;51.984;5.872;2022-12-18T13:46:24;18.40;;;9.97;;
39018;SDS011;24786;51.984;5.872;2022-12-18T13:51:25;23.37;;;10.80;;
39018;SDS011;24786;51.984;5.872;2022-12-18T13:54:00;23.63;;;12.20;;
39018;SDS011;24786;51.984;5.872;2022-12-18T13:56:27;19.90;;;11.33;;
39018;SDS011;24786;51.984;5.872;2022-12-18T13:59:12;22.15;;;12.63;;
39018;SDS011;24786;51.984;5.872;2022-12-18T14:01:44;22.38;;;11.75;;
39018;SDS011;24786;51.984;5.872;2022-12-18T14:04:27;19.47;;;10.97;;
39018;SDS011;24786;51.984;5.872;2022-12-18T14:07:03;21.23;;;11.60;;
39018;SDS011;24786;51.984;5.872;2022-12-18T14:09:36;21.17;;;11.03;;
39018;SDS011;24786;51.984;5.872;2022-12-18T14:12:05;20.73;;;11.70;;
39018;SDS011;24786;51.984;5.872;2022-12-18T14:14:51;17.40;;;10.33;;
39018;SDS011;24786;51.984;5.872;2022-12-18T14:17:17;22.53;;;11.30;;
39018;SDS011;24786;51.984;5.872;2022-12-18T14:19:44;23.53;;;12.17;;
39018;SDS011;24786;51.984;5.872;2022-12-18T14:22:19;23.77;;;11.17;;
39018;SDS011;24786;51.984;5.872;2022-12-18T14:24:46;17.97;;;10.30;;
39018;SDS011;24786;51.984;5.872;2022-12-18T14:27:24;21.10;;;10.83;;
39018;SDS011;24786;51.984;5.872;2022-12-18T14:29:50;19.07;;;11.10;;
39018;SDS011;24786;51.984;5.872;2022-12-18T14:32:17;23.43;;;10.70;;
39018;SDS011;24786;51.984;5.872;2022-12-18T14:34:45;24.40;;;10.87;;
39018;SDS011;24786;51.984;5.872;2022-12-18T14:37:25;20.58;;;11.15;;
39018;SDS011;24786;51.984;5.872;2022-12-18T14:39:59;18.23;;;10.03;;
39018;SDS011;24786;51.984;5.872;2022-12-18T14:42:30;22.17;;;10.37;;
39018;SDS011;24786;51.984;5.872;2022-12-18T14:47:57;18.73;;;10.03;;
39018;SDS011;24786;51.984;5.872;2022-12-18T14:50:23;19.20;;;10.47;;
39018;SDS011;24786;51.984;5.872;2022-12-18T14:52:49;19.60;;;10.30;;
39018;SDS011;24786;51.984;5.872;2022-12-18T14:55:19;18.93;;;10.83;;
39018;SDS011;24786;51.984;5.872;2022-12-18T14:57:48;22.23;;;11.50;;
39018;SDS011;24786;51.984;5.872;2022-12-18T15:00:17;21.23;;;11.33;;
39018;SDS011;24786;51.984;5.872;2022-12-18T15:02:45;19.23;;;11.40;;
39018;SDS011;24786;51.984;5.872;2022-12-18T15:07:39;22.80;;;12.37;;
39018;SDS011;24786;51.984;5.872;2022-12-18T15:10:20;22.60;;;11.90;;
39018;SDS011;24786;51.984;5.872;2022-12-18T15:13:05;24.00;;;12.40;;
39018;SDS011;24786;51.984;5.872;2022-12-18T15:17:59;22.13;;;11.77;;
39018;SDS011;24786;51.984;5.872;2022-12-18T15:20:26;22.27;;;12.20;;
39018;SDS011;24786;51.984;5.872;2022-12-18T15:22:52;20.80;;;11.63;;
39018;SDS011;24786;51.984;5.872;2022-12-18T15:25:55;18.83;;;10.63;;
39018;SDS011;24786;51.984;5.872;2022-12-18T15:28:19;22.97;;;11.37;;
39018;SDS011;24786;51.984;5.872;2022-12-18T15:33:37;21.52;;;11.82;;
39018;SDS011;24786;51.984;5.872;2022-12-18T15:36:11;21.03;;;11.90;;
39018;SDS011;24786;51.984;5.872;2022-12-18T15:38:41;21.60;;;10.90;;
39018;SDS011;24786;51.984;5.872;2022-12-18T15:41:13;20.40;;;11.67;;
39018;SDS011;24786;51.984;5.872;2022-12-18T15:43:40;23.03;;;11.23;;
39018;SDS011;24786;51.984;5.872;2022-12-18T15:46:08;25.07;;;11.77;;
39018;SDS011;24786;51.984;5.872;2022-12-18T15:48:39;23.70;;;10.90;;
39018;SDS011;24786;51.984;5.872;2022-12-18T15:51:39;19.67;;;11.67;;
39018;SDS011;24786;51.984;5.872;2022-12-18T15:54:01;19.67;;;10.10;;
39018;SDS011;24786;51.984;5.872;2022-12-18T15:56:28;25.75;;;12.43;;
39018;SDS011;24786;51.984;5.872;2022-12-18T15:59:14;21.60;;;11.53;;
39018;SDS011;24786;51.984;5.872;2022-12-18T16:01:41;24.03;;;11.70;;
39018;SDS011;24786;51.984;5.872;2022-12-18T16:04:12;20.80;;;11.63;;
39018;SDS011;24786;51.984;5.872;2022-12-18T16:09:04;21.57;;;11.07;;
39018;SDS011;24786;51.984;5.872;2022-12-18T16:11:31;23.20;;;11.43;;
39018;SDS011;24786;51.984;5.872;2022-12-18T16:16:45;23.37;;;12.00;;
39018;SDS011;24786;51.984;5.872;2022-12-18T16:19:13;26.90;;;13.87;;
39018;SDS011;24786;51.984;5.872;2022-12-18T16:21:38;24.93;;;12.60;;
39018;SDS011;24786;51.984;5.872;2022-12-18T16:24:04;27.00;;;13.87;;
39018;SDS011;24786;51.984;5.872;2022-12-18T16:26:32;28.83;;;15.37;;
39018;SDS011;24786;51.984;5.872;2022-12-18T16:28:57;29.47;;;13.70;;
39018;SDS011;24786;51.984;5.872;2022-12-18T16:31:23;28.47;;;14.17;;
39018;SDS011;24786;51.984;5.872;2022-12-18T16:33:48;25.53;;;12.83;;
39018;SDS011;24786;51.984;5.872;2022-12-18T16:36:14;25.13;;;13.60;;
39018;SDS011;24786;51.984;5.872;2022-12-18T16:38:39;27.13;;;13.53;;
39018;SDS011;24786;51.984;5.872;2022-12-18T16:41:17;23.23;;;12.73;;
39018;SDS011;24786;51.984;5.872;2022-12-18T16:43:56;24.67;;;13.13;;
39018;SDS011;24786;51.984;5.872;2022-12-18T16:46:22;29.10;;;14.50;;
39018;SDS011;24786;51.984;5.872;2022-12-18T16:48:47;26.87;;;14.13;;
39018;SDS011;24786;51.984;5.872;2022-12-18T16:51:13;28.67;;;14.17;;
39018;SDS011;24786;51.984;5.872;2022-12-18T16:53:38;29.70;;;14.60;;